sensor_id;sensor_type;location;lat;lon;timestamp;P1;durP1;ratioP1;P2;durP2;ratioP2
50417;SDS011;36346;48.280;14.292;2023-05-02T00:02:26;14.08;;;14.08;;
50417;SDS011;36346;48.280;14.292;2023-05-02T00:04:54;14.25;;;14.25;;
50417;SDS011;36346;48.280;14.292;2023-05-02T00:07:22;14.58;;;14.58;;
50417;SDS011;36346;48.280;14.292;2023-05-02T00:09:51;14.19;;;14.19;;
50417;SDS011;36346;48.280;14.292;2023-05-02T00:12:19;14.79;;;14.79;;
50417;SDS011;36346;48.280;14.292;2023-05-02T00:14:47;15.62;;;15.62;;
50417;SDS011;36346;48.280;14.292;2023-05-02T00:17:16;16.00;;;16.00;;
50417;SDS011;36346;48.280;14.292;2023-05-02T00:19:46;16.33;;;16.33;;
50417;SDS011;36346;48.280;14.292;2023-05-02T00:22:14;16.45;;;16.45;;
50417;SDS011;36346;48.280;14.292;2023-05-02T00:24:42;15.83;;;15.83;;
50417;SDS011;36346;48.280;14.292;2023-05-02T00:27:10;15.65;;;15.65;;
50417;SDS011;36346;48.280;14.292;2023-05-02T00:29:38;15.93;;;15.93;;
50417;SDS011;36346;48.280;14.292;2023-05-02T00:32:07;15.26;;;15.26;;
50417;SDS011;36346;48.280;14.292;2023-05-02T00:34:35;15.69;;;15.69;;
50417;SDS011;36346;48.280;14.292;2023-05-02T00:37:03;15.64;;;15.64;;
50417;SDS011;36346;48.280;14.292;2023-05-02T00:39:33;15.62;;;15.62;;
50417;SDS011;36346;48.280;14.292;2023-05-02T00:42:02;14.89;;;14.89;;
50417;SDS011;36346;48.280;14.292;2023-05-02T00:44:29;14.85;;;14.85;;
50417;SDS011;36346;48.280;14.292;2023-05-02T00:46:59;14.89;;;14.89;;
50417;SDS011;36346;48.280;14.292;2023-05-02T00:49:28;14.46;;;14.46;;
50417;SDS011;36346;48.280;14.292;2023-05-02T00:51:57;14.59;;;14.59;;
50417;SDS011;36346;48.280;14.292;2023-05-02T00:54:25;13.61;;;13.61;;
50417;SDS011;36346;48.280;14.292;2023-05-02T00:56:54;13.05;;;13.05;;
50417;SDS011;36346;48.280;14.292;2023-05-02T00:59:22;12.86;;;12.86;;
50417;SDS011;36346;48.280;14.292;2023-05-02T01:04:59;12.86;;;12.86;;
50417;SDS011;36346;48.280;14.292;2023-05-02T01:10:31;12.16;;;12.16;;
50417;SDS011;36346;48.280;14.292;2023-05-02T01:13:19;12.66;;;12.66;;
50417;SDS011;36346;48.280;14.292;2023-05-02T01:15:52;12.25;;;12.25;;
50417;SDS011;36346;48.280;14.292;2023-05-02T01:18:23;11.80;;;11.80;;
50417;SDS011;36346;48.280;14.292;2023-05-02T01:20:56;12.04;;;12.04;;
50417;SDS011;36346;48.280;14.292;2023-05-02T01:23:30;12.48;;;12.48;;
50417;SDS011;36346;48.280;14.292;2023-05-02T01:26:10;12.84;;;12.84;;
50417;SDS011;36346;48.280;14.292;2023-05-02T01:31:14;12.52;;;12.52;;
50417;SDS011;36346;48.280;14.292;2023-05-02T01:33:43;12.93;;;12.93;;
50417;SDS011;36346;48.280;14.292;2023-05-02T01:36:12;12.57;;;12.57;;
50417;SDS011;36346;48.280;14.292;2023-05-02T01:38:42;13.25;;;13.25;;
50417;SDS011;36346;48.280;14.292;2023-05-02T01:41:11;12.60;;;12.60;;
50417;SDS011;36346;48.280;14.292;2023-05-02T01:43:41;12.65;;;12.65;;
50417;SDS011;36346;48.280;14.292;2023-05-02T01:46:10;13.26;;;13.26;;
50417;SDS011;36346;48.280;14.292;2023-05-02T01:48:43;13.12;;;13.12;;
50417;SDS011;36346;48.280;14.292;2023-05-02T01:51:14;13.10;;;13.10;;
50417;SDS011;36346;48.280;14.292;2023-05-02T01:53:45;12.93;;;12.93;;
50417;SDS011;36346;48.280;14.292;2023-05-02T01:56:16;13.59;;;13.59;;
50417;SDS011;36346;48.280;14.292;2023-05-02T01:58:46;13.49;;;13.49;;
50417;SDS011;36346;48.280;14.292;2023-05-02T02:01:15;13.63;;;13.63;;
50417;SDS011;36346;48.280;14.292;2023-05-02T02:03:45;13.88;;;13.88;;
50417;SDS011;36346;48.280;14.292;2023-05-02T02:06:14;13.35;;;13.35;;
50417;SDS011;36346;48.280;14.292;2023-05-02T02:08:42;12.98;;;12.98;;
50417;SDS011;36346;48.280;14.292;2023-05-02T02:11:10;13.14;;;13.14;;
50417;SDS011;36346;48.280;14.292;2023-05-02T02:13:47;12.70;;;12.70;;
50417;SDS011;36346;48.280;14.292;2023-05-02T02:16:18;12.85;;;12.85;;
50417;SDS011;36346;48.280;14.292;2023-05-02T02:18:51;12.90;;;12.90;;
50417;SDS011;36346;48.280;14.292;2023-05-02T02:21:25;13.17;;;13.17;;
50417;SDS011;36346;48.280;14.292;2023-05-02T02:23:58;13.01;;;13.01;;
50417;SDS011;36346;48.280;14.292;2023-05-02T02:26:29;12.56;;;12.56;;
50417;SDS011;36346;48.280;14.292;2023-05-02T02:28:58;13.18;;;13.18;;
50417;SDS011;36346;48.280;14.292;2023-05-02T02:31:33;12.36;;;12.36;;
50417;SDS011;36346;48.280;14.292;2023-05-02T02:34:02;12.29;;;12.29;;
50417;SDS011;36346;48.280;14.292;2023-05-02T02:36:44;13.13;;;13.13;;
50417;SDS011;36346;48.280;14.292;2023-05-02T02:39:20;13.35;;;13.35;;
50417;SDS011;36346;48.280;14.292;2023-05-02T02:47:28;12.65;;;12.65;;
50417;SDS011;36346;48.280;14.292;2023-05-02T02:58:13;11.87;;;11.87;;
50417;SDS011;36346;48.280;14.292;2023-05-02T03:00:54;10.45;;;10.45;;
50417;SDS011;36346;48.280;14.292;2023-05-02T03:03:23;9.72;;;9.72;;
50417;SDS011;36346;48.280;14.292;2023-05-02T03:05:55;9.00;;;9.00;;
50417;SDS011;36346;48.280;14.292;2023-05-02T03:08:24;8.36;;;8.36;;
50417;SDS011;36346;48.280;14.292;2023-05-02T03:10:52;8.18;;;8.18;;
50417;SDS011;36346;48.280;14.292;2023-05-02T03:13:20;7.90;;;7.90;;
50417;SDS011;36346;48.280;14.292;2023-05-02T03:18:28;7.37;;;7.37;;
50417;SDS011;36346;48.280;14.292;2023-05-02T03:20:57;7.18;;;7.18;;
50417;SDS011;36346;48.280;14.292;2023-05-02T03:23:25;6.79;;;6.79;;
50417;SDS011;36346;48.280;14.292;2023-05-02T03:25:55;6.00;;;6.00;;
50417;SDS011;36346;48.280;14.292;2023-05-02T03:28:24;5.97;;;5.97;;
50417;SDS011;36346;48.280;14.292;2023-05-02T03:30:53;5.67;;;5.67;;
50417;SDS011;36346;48.280;14.292;2023-05-02T03:33:21;5.38;;;5.38;;
50417;SDS011;36346;48.280;14.292;2023-05-02T03:35:50;5.36;;;5.36;;
50417;SDS011;36346;48.280;14.292;2023-05-02T03:38:18;5.10;;;5.10;;
50417;SDS011;36346;48.280;14.292;2023-05-02T03:40:48;5.41;;;5.41;;
50417;SDS011;36346;48.280;14.292;2023-05-02T03:43:17;6.20;;;6.20;;
50417;SDS011;36346;48.280;14.292;2023-05-02T03:45:45;6.08;;;6.08;;
50417;SDS011;36346;48.280;14.292;2023-05-02T03:48:16;5.97;;;5.97;;
50417;SDS011;36346;48.280;14.292;2023-05-02T03:50:44;6.03;;;6.03;;
50417;SDS011;36346;48.280;14.292;2023-05-02T03:53:11;6.16;;;6.16;;
50417;SDS011;36346;48.280;14.292;2023-05-02T03:55:48;6.36;;;6.36;;
50417;SDS011;36346;48.280;14.292;2023-05-02T03:58:24;6.24;;;6.24;;
50417;SDS011;36346;48.280;14.292;2023-05-02T04:00:53;6.55;;;6.55;;
50417;SDS011;36346;48.280;14.292;2023-05-02T04:03:22;6.80;;;6.80;;
50417;SDS011;36346;48.280;14.292;2023-05-02T04:05:51;7.02;;;7.02;;
50417;SDS011;36346;48.280;14.292;2023-05-02T04:08:19;7.11;;;7.11;;
50417;SDS011;36346;48.280;14.292;2023-05-02T04:10:47;6.59;;;6.59;;
50417;SDS011;36346;48.280;14.292;2023-05-02T04:13:18;6.61;;;6.61;;
50417;SDS011;36346;48.280;14.292;2023-05-02T04:15:48;6.34;;;6.34;;
50417;SDS011;36346;48.280;14.292;2023-05-02T04:18:20;6.82;;;6.82;;
50417;SDS011;36346;48.280;14.292;2023-05-02T04:20:48;6.69;;;6.69;;
50417;SDS011;36346;48.280;14.292;2023-05-02T04:23:18;5.89;;;5.89;;
50417;SDS011;36346;48.280;14.292;2023-05-02T04:25:50;5.46;;;5.46;;
50417;SDS011;36346;48.280;14.292;2023-05-02T04:28:21;5.64;;;5.64;;
50417;SDS011;36346;48.280;14.292;2023-05-02T04:30:49;6.17;;;6.17;;
50417;SDS011;36346;48.280;14.292;2023-05-02T04:33:21;7.49;;;7.49;;
50417;SDS011;36346;48.280;14.292;2023-05-02T04:35:51;7.15;;;7.15;;
50417;SDS011;36346;48.280;14.292;2023-05-02T04:38:21;5.38;;;5.38;;
50417;SDS011;36346;48.280;14.292;2023-05-02T04:40:50;5.30;;;5.30;;
50417;SDS011;36346;48.280;14.292;2023-05-02T04:43:24;5.38;;;5.38;;
50417;SDS011;36346;48.280;14.292;2023-05-02T04:45:58;5.38;;;5.38;;
50417;SDS011;36346;48.280;14.292;2023-05-02T04:48:33;5.64;;;5.64;;
50417;SDS011;36346;48.280;14.292;2023-05-02T04:51:01;5.76;;;5.76;;
50417;SDS011;36346;48.280;14.292;2023-05-02T04:53:30;6.05;;;6.05;;
50417;SDS011;36346;48.280;14.292;2023-05-02T04:55:58;5.85;;;5.85;;
50417;SDS011;36346;48.280;14.292;2023-05-02T04:58:27;5.57;;;5.57;;
50417;SDS011;36346;48.280;14.292;2023-05-02T05:01:01;6.15;;;6.15;;
50417;SDS011;36346;48.280;14.292;2023-05-02T05:03:29;5.69;;;5.69;;
50417;SDS011;36346;48.280;14.292;2023-05-02T05:06:00;5.98;;;5.98;;
50417;SDS011;36346;48.280;14.292;2023-05-02T05:08:29;6.19;;;6.19;;
50417;SDS011;36346;48.280;14.292;2023-05-02T05:10:57;6.35;;;6.35;;
50417;SDS011;36346;48.280;14.292;2023-05-02T05:13:25;6.33;;;6.33;;
50417;SDS011;36346;48.280;14.292;2023-05-02T05:15:54;7.50;;;7.50;;
50417;SDS011;36346;48.280;14.292;2023-05-02T05:18:26;8.44;;;8.44;;
50417;SDS011;36346;48.280;14.292;2023-05-02T05:20:54;9.13;;;9.13;;
50417;SDS011;36346;48.280;14.292;2023-05-02T05:23:22;7.85;;;7.85;;
50417;SDS011;36346;48.280;14.292;2023-05-02T05:25:50;7.64;;;7.64;;
50417;SDS011;36346;48.280;14.292;2023-05-02T05:28:18;8.17;;;8.17;;
50417;SDS011;36346;48.280;14.292;2023-05-02T05:30:47;8.34;;;8.34;;
50417;SDS011;36346;48.280;14.292;2023-05-02T05:33:19;8.20;;;8.20;;
50417;SDS011;36346;48.280;14.292;2023-05-02T05:35:48;8.85;;;8.85;;
50417;SDS011;36346;48.280;14.292;2023-05-02T05:38:15;8.18;;;8.18;;
50417;SDS011;36346;48.280;14.292;2023-05-02T05:40:47;10.72;;;10.72;;
50417;SDS011;36346;48.280;14.292;2023-05-02T05:43:16;9.26;;;9.26;;
50417;SDS011;36346;48.280;14.292;2023-05-02T05:45:44;9.09;;;9.09;;
50417;SDS011;36346;48.280;14.292;2023-05-02T05:48:12;10.87;;;10.86;;
50417;SDS011;36346;48.280;14.292;2023-05-02T05:50:44;10.12;;;10.12;;
50417;SDS011;36346;48.280;14.292;2023-05-02T05:53:13;9.66;;;9.66;;
50417;SDS011;36346;48.280;14.292;2023-05-02T05:55:43;9.21;;;9.21;;
50417;SDS011;36346;48.280;14.292;2023-05-02T05:58:11;9.28;;;9.28;;
50417;SDS011;36346;48.280;14.292;2023-05-02T06:00:40;10.22;;;10.22;;
50417;SDS011;36346;48.280;14.292;2023-05-02T06:03:08;10.52;;;10.52;;
50417;SDS011;36346;48.280;14.292;2023-05-02T06:05:37;10.47;;;10.47;;
50417;SDS011;36346;48.280;14.292;2023-05-02T06:08:05;11.90;;;11.90;;
50417;SDS011;36346;48.280;14.292;2023-05-02T06:10:33;10.24;;;10.24;;
50417;SDS011;36346;48.280;14.292;2023-05-02T06:13:02;10.34;;;10.34;;
50417;SDS011;36346;48.280;14.292;2023-05-02T06:15:34;10.44;;;10.44;;
50417;SDS011;36346;48.280;14.292;2023-05-02T06:18:04;11.03;;;11.03;;
50417;SDS011;36346;48.280;14.292;2023-05-02T06:20:34;11.60;;;11.60;;
50417;SDS011;36346;48.280;14.292;2023-05-02T06:23:03;11.90;;;11.90;;
50417;SDS011;36346;48.280;14.292;2023-05-02T06:25:31;11.13;;;11.13;;
50417;SDS011;36346;48.280;14.292;2023-05-02T06:28:00;12.01;;;11.99;;
50417;SDS011;36346;48.280;14.292;2023-05-02T06:30:28;11.79;;;11.79;;
50417;SDS011;36346;48.280;14.292;2023-05-02T06:32:56;12.12;;;12.12;;
50417;SDS011;36346;48.280;14.292;2023-05-02T06:35:24;12.73;;;12.73;;
50417;SDS011;36346;48.280;14.292;2023-05-02T06:37:52;13.34;;;13.34;;
50417;SDS011;36346;48.280;14.292;2023-05-02T06:40:20;11.96;;;11.96;;
50417;SDS011;36346;48.280;14.292;2023-05-02T06:42:48;12.48;;;12.48;;
50417;SDS011;36346;48.280;14.292;2023-05-02T06:45:16;12.75;;;12.75;;
50417;SDS011;36346;48.280;14.292;2023-05-02T06:47:44;12.87;;;12.87;;
50417;SDS011;36346;48.280;14.292;2023-05-02T06:50:12;13.14;;;13.14;;
50417;SDS011;36346;48.280;14.292;2023-05-02T06:52:40;13.06;;;13.06;;
50417;SDS011;36346;48.280;14.292;2023-05-02T06:55:08;13.66;;;13.66;;
50417;SDS011;36346;48.280;14.292;2023-05-02T06:57:36;13.98;;;13.98;;
50417;SDS011;36346;48.280;14.292;2023-05-02T07:00:04;13.99;;;13.99;;
50417;SDS011;36346;48.280;14.292;2023-05-02T07:02:32;14.63;;;14.63;;
50417;SDS011;36346;48.280;14.292;2023-05-02T07:05:00;13.53;;;13.53;;
50417;SDS011;36346;48.280;14.292;2023-05-02T07:07:28;14.55;;;14.55;;
50417;SDS011;36346;48.280;14.292;2023-05-02T07:09:56;14.60;;;14.60;;
50417;SDS011;36346;48.280;14.292;2023-05-02T07:12:25;14.96;;;14.96;;
50417;SDS011;36346;48.280;14.292;2023-05-02T07:14:53;15.52;;;15.52;;
50417;SDS011;36346;48.280;14.292;2023-05-02T07:17:21;15.10;;;15.10;;
50417;SDS011;36346;48.280;14.292;2023-05-02T07:19:49;15.30;;;15.30;;
50417;SDS011;36346;48.280;14.292;2023-05-02T07:22:18;15.04;;;15.04;;
50417;SDS011;36346;48.280;14.292;2023-05-02T07:24:47;14.90;;;14.90;;
50417;SDS011;36346;48.280;14.292;2023-05-02T07:27:15;15.80;;;15.80;;
50417;SDS011;36346;48.280;14.292;2023-05-02T07:29:43;16.22;;;16.22;;
50417;SDS011;36346;48.280;14.292;2023-05-02T07:32:11;15.36;;;15.36;;
50417;SDS011;36346;48.280;14.292;2023-05-02T07:34:39;15.26;;;15.26;;
50417;SDS011;36346;48.280;14.292;2023-05-02T07:37:07;16.37;;;16.37;;
50417;SDS011;36346;48.280;14.292;2023-05-02T07:39:34;16.01;;;16.01;;
50417;SDS011;36346;48.280;14.292;2023-05-02T07:42:03;17.23;;;17.23;;
50417;SDS011;36346;48.280;14.292;2023-05-02T07:44:31;17.60;;;17.60;;
50417;SDS011;36346;48.280;14.292;2023-05-02T07:46:59;16.21;;;16.21;;
50417;SDS011;36346;48.280;14.292;2023-05-02T07:49:27;16.43;;;16.43;;
50417;SDS011;36346;48.280;14.292;2023-05-02T07:51:55;15.56;;;15.56;;
50417;SDS011;36346;48.280;14.292;2023-05-02T07:54:24;15.21;;;15.21;;
50417;SDS011;36346;48.280;14.292;2023-05-02T07:56:52;15.50;;;15.50;;
50417;SDS011;36346;48.280;14.292;2023-05-02T07:59:21;17.15;;;17.15;;
50417;SDS011;36346;48.280;14.292;2023-05-02T08:01:49;15.65;;;15.65;;
50417;SDS011;36346;48.280;14.292;2023-05-02T08:04:17;16.46;;;16.46;;
50417;SDS011;36346;48.280;14.292;2023-05-02T08:06:45;16.50;;;16.50;;
50417;SDS011;36346;48.280;14.292;2023-05-02T08:09:13;16.52;;;16.52;;
50417;SDS011;36346;48.280;14.292;2023-05-02T08:11:42;16.86;;;16.86;;
50417;SDS011;36346;48.280;14.292;2023-05-02T08:14:10;17.21;;;17.21;;
50417;SDS011;36346;48.280;14.292;2023-05-02T08:16:37;17.13;;;17.13;;
50417;SDS011;36346;48.280;14.292;2023-05-02T08:19:06;16.47;;;16.47;;
50417;SDS011;36346;48.280;14.292;2023-05-02T08:21:34;16.85;;;16.85;;
50417;SDS011;36346;48.280;14.292;2023-05-02T08:24:02;17.93;;;17.93;;
50417;SDS011;36346;48.280;14.292;2023-05-02T08:26:30;18.01;;;18.01;;
50417;SDS011;36346;48.280;14.292;2023-05-02T08:28:58;16.79;;;16.78;;
50417;SDS011;36346;48.280;14.292;2023-05-02T08:31:26;17.13;;;17.13;;
50417;SDS011;36346;48.280;14.292;2023-05-02T08:33:54;16.77;;;16.77;;
50417;SDS011;36346;48.280;14.292;2023-05-02T08:36:23;16.64;;;16.64;;
50417;SDS011;36346;48.280;14.292;2023-05-02T08:38:51;17.17;;;17.17;;
50417;SDS011;36346;48.280;14.292;2023-05-02T08:41:19;16.93;;;16.93;;
50417;SDS011;36346;48.280;14.292;2023-05-02T08:43:47;15.92;;;15.92;;
50417;SDS011;36346;48.280;14.292;2023-05-02T08:46:15;17.38;;;17.38;;
50417;SDS011;36346;48.280;14.292;2023-05-02T08:48:44;17.29;;;17.29;;
50417;SDS011;36346;48.280;14.292;2023-05-02T08:51:15;18.35;;;18.35;;
50417;SDS011;36346;48.280;14.292;2023-05-02T08:53:44;17.24;;;17.24;;
50417;SDS011;36346;48.280;14.292;2023-05-02T08:56:12;16.78;;;16.78;;
50417;SDS011;36346;48.280;14.292;2023-05-02T08:58:40;17.41;;;17.41;;
50417;SDS011;36346;48.280;14.292;2023-05-02T09:01:15;18.35;;;18.35;;
50417;SDS011;36346;48.280;14.292;2023-05-02T09:03:46;18.61;;;18.61;;
50417;SDS011;36346;48.280;14.292;2023-05-02T09:06:16;18.40;;;18.40;;
50417;SDS011;36346;48.280;14.292;2023-05-02T09:08:46;17.72;;;17.72;;
50417;SDS011;36346;48.280;14.292;2023-05-02T09:11:16;17.15;;;17.15;;
50417;SDS011;36346;48.280;14.292;2023-05-02T09:13:45;17.56;;;17.56;;
50417;SDS011;36346;48.280;14.292;2023-05-02T09:16:16;17.96;;;17.96;;
50417;SDS011;36346;48.280;14.292;2023-05-02T09:18:49;17.05;;;17.05;;
50417;SDS011;36346;48.280;14.292;2023-05-02T09:21:19;16.54;;;16.54;;
50417;SDS011;36346;48.280;14.292;2023-05-02T09:23:52;17.02;;;17.02;;
50417;SDS011;36346;48.280;14.292;2023-05-02T09:26:27;16.17;;;16.17;;
50417;SDS011;36346;48.280;14.292;2023-05-02T09:29:07;16.07;;;16.07;;
50417;SDS011;36346;48.280;14.292;2023-05-02T09:31:35;15.62;;;15.62;;
50417;SDS011;36346;48.280;14.292;2023-05-02T09:34:14;15.76;;;15.76;;
50417;SDS011;36346;48.280;14.292;2023-05-02T09:36:43;16.12;;;16.12;;
50417;SDS011;36346;48.280;14.292;2023-05-02T09:39:14;15.74;;;15.74;;
50417;SDS011;36346;48.280;14.292;2023-05-02T09:41:45;15.72;;;15.72;;
50417;SDS011;36346;48.280;14.292;2023-05-02T09:44:15;16.51;;;16.51;;
50417;SDS011;36346;48.280;14.292;2023-05-02T09:46:48;15.18;;;15.18;;
50417;SDS011;36346;48.280;14.292;2023-05-02T09:49:43;14.84;;;14.84;;
50417;SDS011;36346;48.280;14.292;2023-05-02T09:52:13;14.89;;;14.89;;
50417;SDS011;36346;48.280;14.292;2023-05-02T09:54:43;17.25;;;17.25;;
50417;SDS011;36346;48.280;14.292;2023-05-02T09:57:13;16.63;;;16.63;;
50417;SDS011;36346;48.280;14.292;2023-05-02T09:59:51;16.28;;;16.28;;
50417;SDS011;36346;48.280;14.292;2023-05-02T10:02:20;15.61;;;15.61;;
50417;SDS011;36346;48.280;14.292;2023-05-02T10:04:50;15.99;;;15.99;;
50417;SDS011;36346;48.280;14.292;2023-05-02T10:07:21;14.99;;;14.99;;
50417;SDS011;36346;48.280;14.292;2023-05-02T10:09:49;15.00;;;15.00;;
50417;SDS011;36346;48.280;14.292;2023-05-02T10:12:21;15.88;;;15.88;;
50417;SDS011;36346;48.280;14.292;2023-05-02T10:14:59;16.04;;;16.04;;
50417;SDS011;36346;48.280;14.292;2023-05-02T10:17:32;15.21;;;15.21;;
50417;SDS011;36346;48.280;14.292;2023-05-02T10:20:08;16.05;;;16.05;;
50417;SDS011;36346;48.280;14.292;2023-05-02T10:22:38;15.20;;;15.20;;
50417;SDS011;36346;48.280;14.292;2023-05-02T10:25:07;15.27;;;15.27;;
50417;SDS011;36346;48.280;14.292;2023-05-02T10:27:36;15.18;;;15.18;;
50417;SDS011;36346;48.280;14.292;2023-05-02T10:30:04;16.32;;;16.32;;
50417;SDS011;36346;48.280;14.292;2023-05-02T10:32:36;15.90;;;15.90;;
50417;SDS011;36346;48.280;14.292;2023-05-02T10:35:05;15.81;;;15.81;;
50417;SDS011;36346;48.280;14.292;2023-05-02T10:37:35;16.00;;;16.00;;
50417;SDS011;36346;48.280;14.292;2023-05-02T10:40:11;16.06;;;16.06;;
50417;SDS011;36346;48.280;14.292;2023-05-02T10:42:41;16.33;;;16.33;;
50417;SDS011;36346;48.280;14.292;2023-05-02T10:45:12;15.59;;;15.59;;
50417;SDS011;36346;48.280;14.292;2023-05-02T10:48:17;16.21;;;16.21;;
50417;SDS011;36346;48.280;14.292;2023-05-02T10:56:11;15.64;;;15.64;;
50417;SDS011;36346;48.280;14.292;2023-05-02T10:58:41;16.57;;;16.57;;
50417;SDS011;36346;48.280;14.292;2023-05-02T11:03:57;16.37;;;16.37;;
50417;SDS011;36346;48.280;14.292;2023-05-02T11:06:27;15.35;;;15.35;;
50417;SDS011;36346;48.280;14.292;2023-05-02T11:11:45;16.02;;;16.02;;
50417;SDS011;36346;48.280;14.292;2023-05-02T11:19:29;14.41;;;14.41;;
50417;SDS011;36346;48.280;14.292;2023-05-02T11:22:39;15.44;;;15.44;;
50417;SDS011;36346;48.280;14.292;2023-05-02T11:25:08;15.44;;;15.44;;
50417;SDS011;36346;48.280;14.292;2023-05-02T11:27:58;15.54;;;15.54;;
50417;SDS011;36346;48.280;14.292;2023-05-02T11:30:37;14.79;;;14.79;;
50417;SDS011;36346;48.280;14.292;2023-05-02T11:33:10;14.78;;;14.78;;
50417;SDS011;36346;48.280;14.292;2023-05-02T11:35:43;15.72;;;15.72;;
50417;SDS011;36346;48.280;14.292;2023-05-02T11:38:14;15.56;;;15.56;;
50417;SDS011;36346;48.280;14.292;2023-05-02T11:40:53;15.74;;;15.74;;
50417;SDS011;36346;48.280;14.292;2023-05-02T11:43:22;16.34;;;16.34;;
50417;SDS011;36346;48.280;14.292;2023-05-02T11:45:53;16.27;;;16.27;;
50417;SDS011;36346;48.280;14.292;2023-05-02T11:48:23;15.37;;;15.37;;
50417;SDS011;36346;48.280;14.292;2023-05-02T11:50:55;16.96;;;16.96;;
50417;SDS011;36346;48.280;14.292;2023-05-02T11:53:25;16.19;;;16.19;;
50417;SDS011;36346;48.280;14.292;2023-05-02T11:55:56;15.94;;;15.94;;
50417;SDS011;36346;48.280;14.292;2023-05-02T11:58:26;15.89;;;15.89;;
50417;SDS011;36346;48.280;14.292;2023-05-02T12:00:57;15.82;;;15.82;;
50417;SDS011;36346;48.280;14.292;2023-05-02T12:03:28;16.50;;;16.50;;
50417;SDS011;36346;48.280;14.292;2023-05-02T12:06:14;15.38;;;15.38;;
50417;SDS011;36346;48.280;14.292;2023-05-02T12:08:45;17.68;;;17.68;;
50417;SDS011;36346;48.280;14.292;2023-05-02T12:11:15;16.47;;;16.47;;
50417;SDS011;36346;48.280;14.292;2023-05-02T12:13:44;16.79;;;16.79;;
50417;SDS011;36346;48.280;14.292;2023-05-02T12:16:14;15.58;;;15.58;;
50417;SDS011;36346;48.280;14.292;2023-05-02T12:18:43;15.46;;;15.46;;
50417;SDS011;36346;48.280;14.292;2023-05-02T12:21:13;15.80;;;15.80;;
50417;SDS011;36346;48.280;14.292;2023-05-02T12:23:42;15.91;;;15.91;;
50417;SDS011;36346;48.280;14.292;2023-05-02T12:26:20;15.34;;;15.34;;
50417;SDS011;36346;48.280;14.292;2023-05-02T12:28:55;14.38;;;14.38;;
50417;SDS011;36346;48.280;14.292;2023-05-02T12:31:25;14.42;;;14.42;;
50417;SDS011;36346;48.280;14.292;2023-05-02T12:33:58;14.76;;;14.76;;
50417;SDS011;36346;48.280;14.292;2023-05-02T12:36:27;14.60;;;14.60;;
50417;SDS011;36346;48.280;14.292;2023-05-02T12:39:00;14.84;;;14.84;;
50417;SDS011;36346;48.280;14.292;2023-05-02T12:41:38;14.54;;;14.54;;
50417;SDS011;36346;48.280;14.292;2023-05-02T12:44:10;14.77;;;14.77;;
50417;SDS011;36346;48.280;14.292;2023-05-02T12:46:38;15.69;;;15.69;;
50417;SDS011;36346;48.280;14.292;2023-05-02T12:49:24;16.24;;;16.24;;
50417;SDS011;36346;48.280;14.292;2023-05-02T12:51:52;16.67;;;16.67;;
50417;SDS011;36346;48.280;14.292;2023-05-02T12:54:22;16.88;;;16.88;;
50417;SDS011;36346;48.280;14.292;2023-05-02T12:56:51;17.29;;;17.29;;
50417;SDS011;36346;48.280;14.292;2023-05-02T13:01:59;18.05;;;18.05;;
50417;SDS011;36346;48.280;14.292;2023-05-02T13:04:34;18.60;;;18.60;;
50417;SDS011;36346;48.280;14.292;2023-05-02T13:07:02;18.75;;;18.75;;
50417;SDS011;36346;48.280;14.292;2023-05-02T13:09:30;19.70;;;19.68;;
50417;SDS011;36346;48.280;14.292;2023-05-02T13:11:58;19.89;;;19.89;;
50417;SDS011;36346;48.280;14.292;2023-05-02T13:14:27;19.29;;;19.29;;
50417;SDS011;36346;48.280;14.292;2023-05-02T13:16:55;19.87;;;19.87;;
50417;SDS011;36346;48.280;14.292;2023-05-02T13:19:23;19.52;;;19.52;;
50417;SDS011;36346;48.280;14.292;2023-05-02T13:21:51;19.97;;;19.97;;
50417;SDS011;36346;48.280;14.292;2023-05-02T13:24:19;19.59;;;19.59;;
50417;SDS011;36346;48.280;14.292;2023-05-02T13:26:47;19.42;;;19.42;;
50417;SDS011;36346;48.280;14.292;2023-05-02T13:29:15;19.71;;;19.71;;
50417;SDS011;36346;48.280;14.292;2023-05-02T13:31:43;21.77;;;21.77;;
50417;SDS011;36346;48.280;14.292;2023-05-02T13:34:11;19.78;;;19.78;;
50417;SDS011;36346;48.280;14.292;2023-05-02T13:36:39;20.46;;;20.46;;
50417;SDS011;36346;48.280;14.292;2023-05-02T13:39:13;21.79;;;21.79;;
50417;SDS011;36346;48.280;14.292;2023-05-02T13:41:40;21.30;;;21.30;;
50417;SDS011;36346;48.280;14.292;2023-05-02T13:44:08;21.53;;;21.53;;
50417;SDS011;36346;48.280;14.292;2023-05-02T13:46:36;20.99;;;20.99;;
50417;SDS011;36346;48.280;14.292;2023-05-02T13:49:05;19.49;;;19.49;;
50417;SDS011;36346;48.280;14.292;2023-05-02T13:51:33;20.52;;;20.52;;
50417;SDS011;36346;48.280;14.292;2023-05-02T13:54:01;20.97;;;20.97;;
50417;SDS011;36346;48.280;14.292;2023-05-02T13:56:29;19.19;;;19.18;;
50417;SDS011;36346;48.280;14.292;2023-05-02T13:58:57;17.82;;;17.82;;
50417;SDS011;36346;48.280;14.292;2023-05-02T14:01:25;18.64;;;18.64;;
50417;SDS011;36346;48.280;14.292;2023-05-02T14:03:54;18.76;;;18.76;;
50417;SDS011;36346;48.280;14.292;2023-05-02T14:06:23;18.13;;;18.13;;
50417;SDS011;36346;48.280;14.292;2023-05-02T14:08:51;17.53;;;17.53;;
50417;SDS011;36346;48.280;14.292;2023-05-02T14:11:19;17.77;;;17.77;;
50417;SDS011;36346;48.280;14.292;2023-05-02T14:13:47;17.94;;;17.94;;
50417;SDS011;36346;48.280;14.292;2023-05-02T14:16:15;17.51;;;17.51;;
50417;SDS011;36346;48.280;14.292;2023-05-02T14:18:43;17.00;;;17.00;;
50417;SDS011;36346;48.280;14.292;2023-05-02T14:21:12;17.14;;;17.14;;
50417;SDS011;36346;48.280;14.292;2023-05-02T14:23:40;17.45;;;17.45;;
50417;SDS011;36346;48.280;14.292;2023-05-02T14:26:08;17.07;;;17.03;;
50417;SDS011;36346;48.280;14.292;2023-05-02T14:28:36;17.70;;;17.63;;
50417;SDS011;36346;48.280;14.292;2023-05-02T14:31:06;17.14;;;17.14;;
50417;SDS011;36346;48.280;14.292;2023-05-02T14:33:34;17.18;;;17.18;;
50417;SDS011;36346;48.280;14.292;2023-05-02T14:36:02;17.47;;;17.47;;
50417;SDS011;36346;48.280;14.292;2023-05-02T14:38:30;18.51;;;18.51;;
50417;SDS011;36346;48.280;14.292;2023-05-02T14:40:58;17.41;;;17.41;;
50417;SDS011;36346;48.280;14.292;2023-05-02T14:43:26;17.11;;;17.11;;
50417;SDS011;36346;48.280;14.292;2023-05-02T14:45:54;16.50;;;16.50;;
50417;SDS011;36346;48.280;14.292;2023-05-02T14:48:23;16.27;;;16.27;;
50417;SDS011;36346;48.280;14.292;2023-05-02T14:50:52;16.71;;;16.71;;
50417;SDS011;36346;48.280;14.292;2023-05-02T14:53:20;17.29;;;17.29;;
50417;SDS011;36346;48.280;14.292;2023-05-02T14:55:48;17.14;;;17.14;;
50417;SDS011;36346;48.280;14.292;2023-05-02T14:58:16;16.97;;;16.97;;
50417;SDS011;36346;48.280;14.292;2023-05-02T15:00:47;17.01;;;17.01;;
50417;SDS011;36346;48.280;14.292;2023-05-02T15:03:15;17.84;;;17.84;;
50417;SDS011;36346;48.280;14.292;2023-05-02T15:05:44;20.36;;;20.36;;
50417;SDS011;36346;48.280;14.292;2023-05-02T15:08:12;26.91;;;26.91;;
50417;SDS011;36346;48.280;14.292;2023-05-02T15:10:40;20.14;;;20.14;;
50417;SDS011;36346;48.280;14.292;2023-05-02T15:13:08;17.22;;;17.22;;
50417;SDS011;36346;48.280;14.292;2023-05-02T15:15:36;16.74;;;16.74;;